sensor_id;sensor_type;location;lat;lon;timestamp;pressure;altitude;pressure_sealevel;temperature
8533;BMP280;4304;53.876;10.662;2023-04-06T00:01:18;102036.75;;;1.45
8533;BMP280;4304;53.876;10.662;2023-04-06T00:03:44;102047.88;;;1.42
8533;BMP280;4304;53.876;10.662;2023-04-06T00:06:09;102048.81;;;1.34
8533;BMP280;4304;53.876;10.662;2023-04-06T00:08:35;102040.34;;;1.26
8533;BMP280;4304;53.876;10.662;2023-04-06T00:11:00;102045.53;;;1.20
8533;BMP280;4304;53.876;10.662;2023-04-06T00:13:28;102046.47;;;1.10
8533;BMP280;4304;53.876;10.662;2023-04-06T00:15:54;102038.84;;;1.06
8533;BMP280;4304;53.876;10.662;2023-04-06T00:18:20;102035.50;;;0.95
8533;BMP280;4304;53.876;10.662;2023-04-06T00:20:45;102035.50;;;0.95
8533;BMP280;4304;53.876;10.662;2023-04-06T00:23:11;102037.25;;;0.91
8533;BMP280;4304;53.876;10.662;2023-04-06T00:25:36;102039.88;;;0.85
8533;BMP280;4304;53.876;10.662;2023-04-06T00:28:01;102040.72;;;0.82
8533;BMP280;4304;53.876;10.662;2023-04-06T00:30:28;102040.75;;;0.80
8533;BMP280;4304;53.876;10.662;2023-04-06T00:32:53;102050.13;;;0.78
8533;BMP280;4304;53.876;10.662;2023-04-06T00:35:19;102043.38;;;0.70
8533;BMP280;4304;53.876;10.662;2023-04-06T00:37:46;102034.94;;;0.59
8533;BMP280;4304;53.876;10.662;2023-04-06T00:40:11;102034.09;;;0.57
8533;BMP280;4304;53.876;10.662;2023-04-06T00:42:37;102031.53;;;0.57
8533;BMP280;4304;53.876;10.662;2023-04-06T00:45:02;102040.09;;;0.51
8533;BMP280;4304;53.876;10.662;2023-04-06T00:47:28;102038.47;;;0.43
8533;BMP280;4304;53.876;10.662;2023-04-06T00:49:54;102020.66;;;0.30
8533;BMP280;4304;53.876;10.662;2023-04-06T00:52:20;102037.59;;;0.44
8533;BMP280;4304;53.876;10.662;2023-04-06T00:54:45;102034.09;;;0.52
8533;BMP280;4304;53.876;10.662;2023-04-06T00:57:12;102038.38;;;0.55
8533;BMP280;4304;53.876;10.662;2023-04-06T00:59:38;102038.34;;;0.62
8533;BMP280;4304;53.876;10.662;2023-04-06T01:02:03;102033.25;;;0.58
8533;BMP280;4304;53.876;10.662;2023-04-06T01:04:29;102042.66;;;0.56
8533;BMP280;4304;53.876;10.662;2023-04-06T01:06:55;102039.25;;;0.51
8533;BMP280;4304;53.876;10.662;2023-04-06T01:09:22;102033.34;;;0.39
8533;BMP280;4304;53.876;10.662;2023-04-06T01:11:47;102042.75;;;0.35
8533;BMP280;4304;53.876;10.662;2023-04-06T01:14:13;102041.94;;;0.32
8533;BMP280;4304;53.876;10.662;2023-04-06T01:16:39;102044.50;;;0.27
8533;BMP280;4304;53.876;10.662;2023-04-06T01:19:09;102031.78;;;0.17
8533;BMP280;4304;53.876;10.662;2023-04-06T01:21:35;102039.47;;;0.12
8533;BMP280;4304;53.876;10.662;2023-04-06T01:24:01;102036.09;;;0.01
8533;BMP280;4304;53.876;10.662;2023-04-06T01:26:26;102033.47;;;0.16
8533;BMP280;4304;53.876;10.662;2023-04-06T01:28:54;102031.72;;;0.24
8533;BMP280;4304;53.876;10.662;2023-04-06T01:31:20;102035.97;;;0.30
8533;BMP280;4304;53.876;10.662;2023-04-06T01:33:45;102036.84;;;0.24
8533;BMP280;4304;53.876;10.662;2023-04-06T01:36:11;102046.22;;;0.25
8533;BMP280;4304;53.876;10.662;2023-04-06T01:38:37;102029.22;;;0.15
8533;BMP280;4304;53.876;10.662;2023-04-06T01:41:02;102025.84;;;0.15
8533;BMP280;4304;53.876;10.662;2023-04-06T01:43:38;102028.34;;;0.18
8533;BMP280;4304;53.876;10.662;2023-04-06T01:46:04;102033.50;;;0.13
8533;BMP280;4304;53.876;10.662;2023-04-06T01:48:30;102020.75;;;0.06
8533;BMP280;4304;53.876;10.662;2023-04-06T01:50:55;102015.63;;;0.10
8533;BMP280;4304;53.876;10.662;2023-04-06T01:53:21;102014.78;;;0.10
8533;BMP280;4304;53.876;10.662;2023-04-06T01:55:56;102022.41;;;0.13
8533;BMP280;4304;53.876;10.662;2023-04-06T01:58:21;102015.63;;;0.15
8533;BMP280;4304;53.876;10.662;2023-04-06T02:00:46;102015.56;;;0.25
8533;BMP280;4304;53.876;10.662;2023-04-06T02:03:12;102016.38;;;0.32
8533;BMP280;4304;53.876;10.662;2023-04-06T02:05:38;102002.69;;;0.39
8533;BMP280;4304;53.876;10.662;2023-04-06T02:08:04;102009.53;;;0.34
8533;BMP280;4304;53.876;10.662;2023-04-06T02:10:30;102006.13;;;0.35
8533;BMP280;4304;53.876;10.662;2023-04-06T02:12:56;102003.59;;;0.30
8533;BMP280;4304;53.876;10.662;2023-04-06T02:15:21;102006.13;;;0.33
8533;BMP280;4304;53.876;10.662;2023-04-06T02:17:46;102010.34;;;0.37
8533;BMP280;4304;53.876;10.662;2023-04-06T02:20:12;101998.47;;;0.32
8533;BMP280;4304;53.876;10.662;2023-04-06T02:22:38;102007.78;;;0.39
8533;BMP280;4304;53.876;10.662;2023-04-06T02:25:04;102009.50;;;0.40
8533;BMP280;4304;53.876;10.662;2023-04-06T02:27:29;102014.56;;;0.45
8533;BMP280;4304;53.876;10.662;2023-04-06T02:29:55;102007.78;;;0.40
8533;BMP280;4304;53.876;10.662;2023-04-06T02:32:20;101995.03;;;0.37
8533;BMP280;4304;53.876;10.662;2023-04-06T02:34:46;102000.94;;;0.43
8533;BMP280;4304;53.876;10.662;2023-04-06T02:37:11;102006.94;;;0.41
8533;BMP280;4304;53.876;10.662;2023-04-06T02:39:37;102009.53;;;0.32
8533;BMP280;4304;53.876;10.662;2023-04-06T02:42:02;101999.31;;;0.29
8533;BMP280;4304;53.876;10.662;2023-04-06T02:44:27;102007.03;;;0.25
8533;BMP280;4304;53.876;10.662;2023-04-06T02:46:53;102012.16;;;0.22
8533;BMP280;4304;53.876;10.662;2023-04-06T02:49:18;102012.19;;;0.13
8533;BMP280;4304;53.876;10.662;2023-04-06T02:51:44;102001.97;;;0.11
8533;BMP280;4304;53.876;10.662;2023-04-06T02:54:09;101997.69;;;0.18
8533;BMP280;4304;53.876;10.662;2023-04-06T02:56:35;101993.38;;;0.26
8533;BMP280;4304;53.876;10.662;2023-04-06T02:59:00;101994.22;;;0.28
8533;BMP280;4304;53.876;10.662;2023-04-06T03:01:26;101992.53;;;0.27
8533;BMP280;4304;53.876;10.662;2023-04-06T03:03:51;101989.09;;;0.28
8533;BMP280;4304;53.876;10.662;2023-04-06T03:06:17;101993.38;;;0.29
8533;BMP280;4304;53.876;10.662;2023-04-06T03:08:42;101995.84;;;0.39
8533;BMP280;4304;53.876;10.662;2023-04-06T03:11:08;101992.47;;;0.37
8533;BMP280;4304;53.876;10.662;2023-04-06T03:13:33;101988.25;;;0.32
8533;BMP280;4304;53.876;10.662;2023-04-06T03:15:58;101987.47;;;0.19
8533;BMP280;4304;53.876;10.662;2023-04-06T03:18:25;102002.81;;;0.16
8533;BMP280;4304;53.876;10.662;2023-04-06T03:20:51;102000.31;;;0.09
8533;BMP280;4304;53.876;10.662;2023-04-06T03:23:19;101997.78;;;0.01
8533;BMP280;4304;53.876;10.662;2023-04-06T03:25:46;102001.22;;;-0.02
8533;BMP280;4304;53.876;10.662;2023-04-06T03:28:11;102002.13;;;-0.12
8533;BMP280;4304;53.876;10.662;2023-04-06T03:30:37;102005.50;;;-0.15
8533;BMP280;4304;53.876;10.662;2023-04-06T03:33:02;101996.19;;;-0.25
8533;BMP280;4304;53.876;10.662;2023-04-06T03:35:27;101993.69;;;-0.29
8533;BMP280;4304;53.876;10.662;2023-04-06T03:37:53;101993.69;;;-0.32
8533;BMP280;4304;53.876;10.662;2023-04-06T03:40:18;102003.00;;;-0.25
8533;BMP280;4304;53.876;10.662;2023-04-06T03:42:44;102015.78;;;-0.16
8533;BMP280;4304;53.876;10.662;2023-04-06T03:45:09;102014.88;;;-0.11
8533;BMP280;4304;53.876;10.662;2023-04-06T03:47:35;102008.94;;;-0.17
8533;BMP280;4304;53.876;10.662;2023-04-06T03:50:00;102002.19;;;-0.29
8533;BMP280;4304;53.876;10.662;2023-04-06T03:52:26;102009.84;;;-0.27
8533;BMP280;4304;53.876;10.662;2023-04-06T03:54:52;102012.41;;;-0.30
8533;BMP280;4304;53.876;10.662;2023-04-06T03:57:17;102009.00;;;-0.38
8533;BMP280;4304;53.876;10.662;2023-04-06T03:59:43;102023.50;;;-0.39
8533;BMP280;4304;53.876;10.662;2023-04-06T04:02:08;102013.28;;;-0.44
8533;BMP280;4304;53.876;10.662;2023-04-06T04:04:33;102014.16;;;-0.47
8533;BMP280;4304;53.876;10.662;2023-04-06T04:06:59;102008.19;;;-0.42
8533;BMP280;4304;53.876;10.662;2023-04-06T04:09:25;102014.16;;;-0.47
8533;BMP280;4304;53.876;10.662;2023-04-06T04:11:50;102013.31;;;-0.52
8533;BMP280;4304;53.876;10.662;2023-04-06T04:14:15;102009.91;;;-0.51
8533;BMP280;4304;53.876;10.662;2023-04-06T04:16:41;102021.81;;;-0.53
8533;BMP280;4304;53.876;10.662;2023-04-06T04:19:07;102013.31;;;-0.61
8533;BMP280;4304;53.876;10.662;2023-04-06T04:21:32;102022.69;;;-0.60
8533;BMP280;4304;53.876;10.662;2023-04-06T04:23:57;102028.66;;;-0.56
8533;BMP280;4304;53.876;10.662;2023-04-06T04:26:23;102028.66;;;-0.59
8533;BMP280;4304;53.876;10.662;2023-04-06T04:28:48;102025.25;;;-0.57
8533;BMP280;4304;53.876;10.662;2023-04-06T04:31:14;102014.19;;;-0.59
8533;BMP280;4304;53.876;10.662;2023-04-06T04:33:39;102021.81;;;-0.51
8533;BMP280;4304;53.876;10.662;2023-04-06T04:36:05;102019.25;;;-0.45
8533;BMP280;4304;53.876;10.662;2023-04-06T04:38:30;102024.38;;;-0.43
8533;BMP280;4304;53.876;10.662;2023-04-06T04:40:56;102027.72;;;-0.32
8533;BMP280;4304;53.876;10.662;2023-04-06T04:43:21;102029.44;;;-0.35
8533;BMP280;4304;53.876;10.662;2023-04-06T04:45:46;102027.75;;;-0.39
8533;BMP280;4304;53.876;10.662;2023-04-06T04:48:12;102021.72;;;-0.22
8533;BMP280;4304;53.876;10.662;2023-04-06T04:50:37;102023.38;;;-0.12
8533;BMP280;4304;53.876;10.662;2023-04-06T04:53:03;102031.81;;;0.06
8533;BMP280;4304;53.876;10.662;2023-04-06T04:55:31;102014.81;;;0.07
8533;BMP280;4304;53.876;10.662;2023-04-06T04:57:56;102024.13;;;0.11
8533;BMP280;4304;53.876;10.662;2023-04-06T05:00:22;102024.06;;;0.27
8533;BMP280;4304;53.876;10.662;2023-04-06T05:02:47;102016.34;;;0.35
8533;BMP280;4304;53.876;10.662;2023-04-06T05:05:13;102027.41;;;0.41
8533;BMP280;4304;53.876;10.662;2023-04-06T05:07:38;102023.13;;;0.43
8533;BMP280;4304;53.876;10.662;2023-04-06T05:10:05;102017.09;;;0.48
8533;BMP280;4304;53.876;10.662;2023-04-06T05:12:30;102023.00;;;0.62
8533;BMP280;4304;53.876;10.662;2023-04-06T05:14:56;102024.66;;;0.68
8533;BMP280;4304;53.876;10.662;2023-04-06T05:17:21;102019.44;;;0.77
8533;BMP280;4304;53.876;10.662;2023-04-06T05:19:46;102018.44;;;0.98
8533;BMP280;4304;53.876;10.662;2023-04-06T05:22:12;102019.16;;;1.11
8533;BMP280;4304;53.876;10.662;2023-04-06T05:24:39;102015.66;;;1.21
8533;BMP280;4304;53.876;10.662;2023-04-06T05:27:05;102015.50;;;1.37
8533;BMP280;4304;53.876;10.662;2023-04-06T05:29:30;102006.03;;;1.45
8533;BMP280;4304;53.876;10.662;2023-04-06T05:31:56;102014.22;;;1.73
8533;BMP280;4304;53.876;10.662;2023-04-06T05:34:21;102015.56;;;2.04
8533;BMP280;4304;53.876;10.662;2023-04-06T05:36:47;102014.41;;;2.24
8533;BMP280;4304;53.876;10.662;2023-04-06T05:39:12;102011.91;;;2.23
8533;BMP280;4304;53.876;10.662;2023-04-06T05:41:38;102000.25;;;2.58
8533;BMP280;4304;53.876;10.662;2023-04-06T05:44:03;102010.81;;;2.93
8533;BMP280;4304;53.876;10.662;2023-04-06T05:46:29;102021.38;;;2.75
8533;BMP280;4304;53.876;10.662;2023-04-06T05:48:54;102022.03;;;2.87
8533;BMP280;4304;53.876;10.662;2023-04-06T05:51:20;102012.41;;;2.99
8533;BMP280;4304;53.876;10.662;2023-04-06T05:53:46;102013.88;;;3.12
8533;BMP280;4304;53.876;10.662;2023-04-06T05:56:11;102030.28;;;3.52
8533;BMP280;4304;53.876;10.662;2023-04-06T05:58:36;102024.97;;;3.62
8533;BMP280;4304;53.876;10.662;2023-04-06T06:01:02;102030.75;;;4.14
8533;BMP280;4304;53.876;10.662;2023-04-06T06:03:28;102031.38;;;4.24
8533;BMP280;4304;53.876;10.662;2023-04-06T06:05:59;102022.72;;;4.28
8533;BMP280;4304;53.876;10.662;2023-04-06T06:08:25;102038.09;;;4.69
8533;BMP280;4304;53.876;10.662;2023-04-06T06:10:50;102033.69;;;4.74
8533;BMP280;4304;53.876;10.662;2023-04-06T06:13:16;102033.09;;;4.98
8533;BMP280;4304;53.876;10.662;2023-04-06T06:15:41;102030.50;;;4.63
8533;BMP280;4304;53.876;10.662;2023-04-06T06:18:06;102048.50;;;4.99
8533;BMP280;4304;53.876;10.662;2023-04-06T06:20:32;102045.19;;;4.94
8533;BMP280;4304;53.876;10.662;2023-04-06T06:22:57;102046.16;;;5.25
8533;BMP280;4304;53.876;10.662;2023-04-06T06:25:23;102050.50;;;5.23
8533;BMP280;4304;53.876;10.662;2023-04-06T06:27:49;102060.47;;;5.36
8533;BMP280;4304;53.876;10.662;2023-04-06T06:30:14;102057.56;;;5.80
8533;BMP280;4304;53.876;10.662;2023-04-06T06:32:40;102056.75;;;5.46
8533;BMP280;4304;53.876;10.662;2023-04-06T06:35:05;102064.19;;;5.56
8533;BMP280;4304;53.876;10.662;2023-04-06T06:37:31;102067.69;;;6.17
8533;BMP280;4304;53.876;10.662;2023-04-06T06:39:56;102076.19;;;6.78
8533;BMP280;4304;53.876;10.662;2023-04-06T06:42:24;102101.47;;;7.22
8533;BMP280;4304;53.876;10.662;2023-04-06T06:44:50;102085.72;;;6.47
8533;BMP280;4304;53.876;10.662;2023-04-06T06:47:16;102083.41;;;6.67
8533;BMP280;4304;53.876;10.662;2023-04-06T06:49:41;102066.38;;;7.15
8533;BMP280;4304;53.876;10.662;2023-04-06T06:52:07;102084.50;;;6.86
8533;BMP280;4304;53.876;10.662;2023-04-06T06:54:32;102082.03;;;6.56
8533;BMP280;4304;53.876;10.662;2023-04-06T06:56:57;102085.06;;;7.47
8533;BMP280;4304;53.876;10.662;2023-04-06T06:59:23;102113.97;;;7.59
8533;BMP280;4304;53.876;10.662;2023-04-06T07:01:49;102136.69;;;7.75
8533;BMP280;4304;53.876;10.662;2023-04-06T07:04:15;102125.53;;;7.49
8533;BMP280;4304;53.876;10.662;2023-04-06T07:06:40;102132.38;;;8.24
8533;BMP280;4304;53.876;10.662;2023-04-06T07:09:05;102121.97;;;7.77
8533;BMP280;4304;53.876;10.662;2023-04-06T07:11:31;102131.56;;;8.91
8533;BMP280;4304;53.876;10.662;2023-04-06T07:13:56;102149.88;;;8.18
8533;BMP280;4304;53.876;10.662;2023-04-06T07:16:22;102141.22;;;8.64
8533;BMP280;4304;53.876;10.662;2023-04-06T07:18:47;102159.91;;;8.95
8533;BMP280;4304;53.876;10.662;2023-04-06T07:21:13;102188.91;;;9.48
8533;BMP280;4304;53.876;10.662;2023-04-06T07:23:41;102160.38;;;9.27
8533;BMP280;4304;53.876;10.662;2023-04-06T07:26:06;102180.25;;;9.27
8533;BMP280;4304;53.876;10.662;2023-04-06T07:28:32;102141.72;;;8.96
8533;BMP280;4304;53.876;10.662;2023-04-06T07:30:57;102106.81;;;8.61
8533;BMP280;4304;53.876;10.662;2023-04-06T07:33:22;102143.22;;;9.02
8533;BMP280;4304;53.876;10.662;2023-04-06T07:35:48;102129.06;;;8.88
8533;BMP280;4304;53.876;10.662;2023-04-06T07:38:13;102173.44;;;8.80
8533;BMP280;4304;53.876;10.662;2023-04-06T07:40:38;102182.97;;;9.02
8533;BMP280;4304;53.876;10.662;2023-04-06T07:43:04;102143.13;;;8.82
8533;BMP280;4304;53.876;10.662;2023-04-06T07:45:29;102133.25;;;8.48
8533;BMP280;4304;53.876;10.662;2023-04-06T07:47:55;102174.34;;;8.79
8533;BMP280;4304;53.876;10.662;2023-04-06T07:50:21;102127.72;;;8.34
8533;BMP280;4304;53.876;10.662;2023-04-06T07:52:46;102155.72;;;8.70
8533;BMP280;4304;53.876;10.662;2023-04-06T07:55:12;102108.50;;;8.16
8533;BMP280;4304;53.876;10.662;2023-04-06T07:57:37;102143.72;;;8.45
8533;BMP280;4304;53.876;10.662;2023-04-06T08:00:02;102142.25;;;8.83
8533;BMP280;4304;53.876;10.662;2023-04-06T08:02:29;102169.63;;;9.33
8533;BMP280;4304;53.876;10.662;2023-04-06T08:04:55;102171.13;;;9.59
8533;BMP280;4304;53.876;10.662;2023-04-06T08:07:20;102189.78;;;10.10
8533;BMP280;4304;53.876;10.662;2023-04-06T08:09:46;102182.03;;;9.67
8533;BMP280;4304;53.876;10.662;2023-04-06T08:12:12;102165.41;;;9.09
8533;BMP280;4304;53.876;10.662;2023-04-06T08:14:37;102159.97;;;9.15
8533;BMP280;4304;53.876;10.662;2023-04-06T08:17:02;102110.75;;;8.92
8533;BMP280;4304;53.876;10.662;2023-04-06T08:19:28;102167.94;;;9.10
8533;BMP280;4304;53.876;10.662;2023-04-06T08:21:53;102192.25;;;10.13
8533;BMP280;4304;53.876;10.662;2023-04-06T08:24:19;102199.38;;;10.84
8533;BMP280;4304;53.876;10.662;2023-04-06T08:26:45;102165.72;;;9.85
8533;BMP280;4304;53.876;10.662;2023-04-06T08:29:10;102185.81;;;10.01
8533;BMP280;4304;53.876;10.662;2023-04-06T08:31:36;102201.22;;;10.64
8533;BMP280;4304;53.876;10.662;2023-04-06T08:34:03;102233.34;;;10.81
8533;BMP280;4304;53.876;10.662;2023-04-06T08:36:29;102232.06;;;10.71
8533;BMP280;4304;53.876;10.662;2023-04-06T08:38:55;102242.00;;;10.43
8533;BMP280;4304;53.876;10.662;2023-04-06T08:41:20;102256.00;;;10.20
8533;BMP280;4304;53.876;10.662;2023-04-06T08:43:54;102255.00;;;10.43
8533;BMP280;4304;53.876;10.662;2023-04-06T08:46:21;102251.47;;;10.44
8533;BMP280;4304;53.876;10.662;2023-04-06T08:48:47;102233.25;;;10.64
8533;BMP280;4304;53.876;10.662;2023-04-06T08:51:15;102283.81;;;10.77
8533;BMP280;4304;53.876;10.662;2023-04-06T08:53:41;102283.94;;;11.30
8533;BMP280;4304;53.876;10.662;2023-04-06T08:56:08;102318.81;;;11.08
8533;BMP280;4304;53.876;10.662;2023-04-06T08:58:37;102333.97;;;10.99
8533;BMP280;4304;53.876;10.662;2023-04-06T09:01:07;102354.13;;;10.74
8533;BMP280;4304;53.876;10.662;2023-04-06T09:03:39;102287.97;;;10.22
8533;BMP280;4304;53.876;10.662;2023-04-06T09:06:06;102317.69;;;10.56
8533;BMP280;4304;53.876;10.662;2023-04-06T09:08:35;102316.84;;;10.55
8533;BMP280;4304;53.876;10.662;2023-04-06T09:11:02;102341.97;;;10.55
8533;BMP280;4304;53.876;10.662;2023-04-06T09:13:28;102309.47;;;9.82
8533;BMP280;4304;53.876;10.662;2023-04-06T09:16:04;102339.22;;;9.97
8533;BMP280;4304;53.876;10.662;2023-04-06T09:18:32;102331.03;;;10.68
8533;BMP280;4304;53.876;10.662;2023-04-06T09:21:05;102315.81;;;10.18
8533;BMP280;4304;53.876;10.662;2023-04-06T09:23:31;102349.13;;;10.09
8533;BMP280;4304;53.876;10.662;2023-04-06T09:26:14;102293.88;;;10.64
8533;BMP280;4304;53.876;10.662;2023-04-06T09:28:56;102360.69;;;11.02
8533;BMP280;4304;53.876;10.662;2023-04-06T09:31:26;102388.72;;;10.96
8533;BMP280;4304;53.876;10.662;2023-04-06T09:33:57;102402.47;;;11.37
8533;BMP280;4304;53.876;10.662;2023-04-06T09:36:33;102419.50;;;11.06
8533;BMP280;4304;53.876;10.662;2023-04-06T09:39:01;102377.25;;;11.19
8533;BMP280;4304;53.876;10.662;2023-04-06T09:41:32;102323.91;;;11.66
8533;BMP280;4304;53.876;10.662;2023-04-06T09:44:03;102393.94;;;11.72
8533;BMP280;4304;53.876;10.662;2023-04-06T09:46:31;102415.41;;;11.95
8533;BMP280;4304;53.876;10.662;2023-04-06T09:48:58;102429.66;;;11.88
8533;BMP280;4304;53.876;10.662;2023-04-06T09:51:25;102436.75;;;12.03
8533;BMP280;4304;53.876;10.662;2023-04-06T09:53:53;102434.41;;;11.60
8533;BMP280;4304;53.876;10.662;2023-04-06T09:56:23;102451.81;;;11.40
8533;BMP280;4304;53.876;10.662;2023-04-06T09:58:53;102397.13;;;11.78
8533;BMP280;4304;53.876;10.662;2023-04-06T10:01:21;102424.75;;;11.24
8533;BMP280;4304;53.876;10.662;2023-04-06T10:04:09;102386.59;;;11.23
8533;BMP280;4304;53.876;10.662;2023-04-06T10:06:38;102361.63;;;11.94
8533;BMP280;4304;53.876;10.662;2023-04-06T10:09:04;102415.00;;;11.67
8533;BMP280;4304;53.876;10.662;2023-04-06T10:11:33;102392.31;;;12.41
8533;BMP280;4304;53.876;10.662;2023-04-06T10:14:00;102426.06;;;12.44
8533;BMP280;4304;53.876;10.662;2023-04-06T10:16:25;102402.91;;;12.20
8533;BMP280;4304;53.876;10.662;2023-04-06T10:19:02;102391.91;;;11.96
8533;BMP280;4304;53.876;10.662;2023-04-06T10:21:31;102412.94;;;11.55
8533;BMP280;4304;53.876;10.662;2023-04-06T10:23:59;102345.16;;;12.45
8533;BMP280;4304;53.876;10.662;2023-04-06T10:26:26;102424.63;;;11.84
8533;BMP280;4304;53.876;10.662;2023-04-06T10:28:51;102405.84;;;11.77
8533;BMP280;4304;53.876;10.662;2023-04-06T10:31:27;102413.59;;;12.15
8533;BMP280;4304;53.876;10.662;2023-04-06T10:33:54;102401.84;;;11.52
8533;BMP280;4304;53.876;10.662;2023-04-06T10:36:26;102391.63;;;11.66
8533;BMP280;4304;53.876;10.662;2023-04-06T10:39:03;102376.53;;;12.09
8533;BMP280;4304;53.876;10.662;2023-04-06T10:41:43;102399.69;;;12.15
8533;BMP280;4304;53.876;10.662;2023-04-06T10:44:30;102364.63;;;12.55
8533;BMP280;4304;53.876;10.662;2023-04-06T10:46:59;102321.50;;;12.99
8533;BMP280;4304;53.876;10.662;2023-04-06T10:49:26;102396.66;;;12.92
8533;BMP280;4304;53.876;10.662;2023-04-06T10:51:55;102418.09;;;11.93
8533;BMP280;4304;53.876;10.662;2023-04-06T10:54:24;102403.75;;;12.38
8533;BMP280;4304;53.876;10.662;2023-04-06T10:56:49;102388.78;;;12.59
8533;BMP280;4304;53.876;10.662;2023-04-06T10:59:19;102375.63;;;13.27
8533;BMP280;4304;53.876;10.662;2023-04-06T11:01:45;102418.16;;;12.45
8533;BMP280;4304;53.876;10.662;2023-04-06T11:04:16;102411.25;;;12.09
8533;BMP280;4304;53.876;10.662;2023-04-06T11:06:46;102412.41;;;12.04
8533;BMP280;4304;53.876;10.662;2023-04-06T11:09:28;102388.97;;;12.21
8533;BMP280;4304;53.876;10.662;2023-04-06T11:11:54;102385.81;;;12.14
8533;BMP280;4304;53.876;10.662;2023-04-06T11:14:21;102419.63;;;12.16
8533;BMP280;4304;53.876;10.662;2023-04-06T11:16:47;102412.88;;;11.93
8533;BMP280;4304;53.876;10.662;2023-04-06T11:19:16;102339.06;;;12.95
8533;BMP280;4304;53.876;10.662;2023-04-06T11:21:49;102387.56;;;13.16
8533;BMP280;4304;53.876;10.662;2023-04-06T11:24:15;102343.69;;;13.23
8533;BMP280;4304;53.876;10.662;2023-04-06T11:29:18;102388.91;;;13.23
8533;BMP280;4304;53.876;10.662;2023-04-06T11:31:48;102367.56;;;13.32
8533;BMP280;4304;53.876;10.662;2023-04-06T11:34:19;102395.72;;;13.58
8533;BMP280;4304;53.876;10.662;2023-04-06T11:36:47;102365.50;;;13.54
8533;BMP280;4304;53.876;10.662;2023-04-06T11:39:13;102366.22;;;13.40
8533;BMP280;4304;53.876;10.662;2023-04-06T11:41:47;102405.00;;;12.65
8533;BMP280;4304;53.876;10.662;2023-04-06T11:44:13;102391.25;;;13.12
8533;BMP280;4304;53.876;10.662;2023-04-06T11:46:38;102362.56;;;12.95
8533;BMP280;4304;53.876;10.662;2023-04-06T11:49:04;102377.34;;;13.44
8533;BMP280;4304;53.876;10.662;2023-04-06T11:51:29;102360.56;;;14.10
8533;BMP280;4304;53.876;10.662;2023-04-06T11:53:55;102411.69;;;13.04
8533;BMP280;4304;53.876;10.662;2023-04-06T11:56:30;102375.00;;;13.07
8533;BMP280;4304;53.876;10.662;2023-04-06T11:58:57;102374.38;;;12.35
8533;BMP280;4304;53.876;10.662;2023-04-06T12:01:24;102356.88;;;12.71
8533;BMP280;4304;53.876;10.662;2023-04-06T12:03:50;102371.13;;;13.14
8533;BMP280;4304;53.876;10.662;2023-04-06T12:06:16;102369.09;;;13.04
8533;BMP280;4304;53.876;10.662;2023-04-06T12:08:41;102319.81;;;12.98
8533;BMP280;4304;53.876;10.662;2023-04-06T12:11:07;102326.19;;;13.24
8533;BMP280;4304;53.876;10.662;2023-04-06T12:13:32;102342.81;;;14.00
8533;BMP280;4304;53.876;10.662;2023-04-06T12:15:58;102327.19;;;13.99
8533;BMP280;4304;53.876;10.662;2023-04-06T12:18:23;102349.91;;;13.20
8533;BMP280;4304;53.876;10.662;2023-04-06T12:20:51;102342.88;;;13.05
8533;BMP280;4304;53.876;10.662;2023-04-06T12:23:16;102316.03;;;13.66
8533;BMP280;4304;53.876;10.662;2023-04-06T12:25:42;102346.16;;;12.60
8533;BMP280;4304;53.876;10.662;2023-04-06T12:28:08;102334.31;;;12.19
8533;BMP280;4304;53.876;10.662;2023-04-06T12:30:36;102334.66;;;12.12
8533;BMP280;4304;53.876;10.662;2023-04-06T12:33:01;102303.41;;;12.12
8533;BMP280;4304;53.876;10.662;2023-04-06T12:35:33;102267.31;;;12.55
8533;BMP280;4304;53.876;10.662;2023-04-06T12:37:58;102292.59;;;12.86
8533;BMP280;4304;53.876;10.662;2023-04-06T12:40:24;102262.81;;;12.74
8533;BMP280;4304;53.876;10.662;2023-04-06T12:42:50;102268.28;;;12.52
8533;BMP280;4304;53.876;10.662;2023-04-06T12:45:15;102285.03;;;12.48
8533;BMP280;4304;53.876;10.662;2023-04-06T12:47:41;102266.31;;;12.40
8533;BMP280;4304;53.876;10.662;2023-04-06T12:50:07;102277.50;;;12.26
8533;BMP280;4304;53.876;10.662;2023-04-06T12:52:32;102266.47;;;12.04
8533;BMP280;4304;53.876;10.662;2023-04-06T12:55:01;102227.44;;;12.19
8533;BMP280;4304;53.876;10.662;2023-04-06T12:57:26;102209.81;;;12.24
8533;BMP280;4304;53.876;10.662;2023-04-06T12:59:52;102233.28;;;12.24
8533;BMP280;4304;53.876;10.662;2023-04-06T13:02:18;102228.00;;;11.57
8533;BMP280;4304;53.876;10.662;2023-04-06T13:04:45;102247.19;;;11.73
8533;BMP280;4304;53.876;10.662;2023-04-06T13:07:11;102233.91;;;11.60
8533;BMP280;4304;53.876;10.662;2023-04-06T13:09:36;102228.28;;;11.86
8533;BMP280;4304;53.876;10.662;2023-04-06T13:12:02;102250.78;;;11.70
8533;BMP280;4304;53.876;10.662;2023-04-06T13:14:27;102228.44;;;11.30
8533;BMP280;4304;53.876;10.662;2023-04-06T13:16:53;102223.72;;;11.38
8533;BMP280;4304;53.876;10.662;2023-04-06T13:19:18;102222.31;;;11.31
8533;BMP280;4304;53.876;10.662;2023-04-06T13:21:43;102199.72;;;11.31
8533;BMP280;4304;53.876;10.662;2023-04-06T13:24:09;102197.25;;;11.65
8533;BMP280;4304;53.876;10.662;2023-04-06T13:26:35;102182.84;;;11.75
8533;BMP280;4304;53.876;10.662;2023-04-06T13:29:01;102206.50;;;11.70
8533;BMP280;4304;53.876;10.662;2023-04-06T13:31:27;102156.50;;;11.97
8533;BMP280;4304;53.876;10.662;2023-04-06T13:33:53;102173.34;;;12.07
8533;BMP280;4304;53.876;10.662;2023-04-06T13:36:18;102218.16;;;11.80
8533;BMP280;4304;53.876;10.662;2023-04-06T13:38:44;102220.34;;;11.54
8533;BMP280;4304;53.876;10.662;2023-04-06T13:41:17;102221.38;;;11.68
8533;BMP280;4304;53.876;10.662;2023-04-06T13:43:43;102218.06;;;11.28
8533;BMP280;4304;53.876;10.662;2023-04-06T13:46:11;102210.91;;;11.33
8533;BMP280;4304;53.876;10.662;2023-04-06T13:48:37;102201.66;;;11.45
8533;BMP280;4304;53.876;10.662;2023-04-06T13:51:12;102186.19;;;11.60
8533;BMP280;4304;53.876;10.662;2023-04-06T13:53:38;102209.94;;;11.71
8533;BMP280;4304;53.876;10.662;2023-04-06T13:56:04;102206.91;;;11.63
8533;BMP280;4304;53.876;10.662;2023-04-06T13:58:30;102196.84;;;11.55
8533;BMP280;4304;53.876;10.662;2023-04-06T14:01:05;102193.16;;;11.59
8533;BMP280;4304;53.876;10.662;2023-04-06T14:03:31;102190.72;;;11.56
8533;BMP280;4304;53.876;10.662;2023-04-06T14:05:57;102199.06;;;11.45
8533;BMP280;4304;53.876;10.662;2023-04-06T14:08:22;102181.91;;;11.59
8533;BMP280;4304;53.876;10.662;2023-04-06T14:10:48;102193.03;;;11.44
8533;BMP280;4304;53.876;10.662;2023-04-06T14:13:13;102201.56;;;11.48